createdAt,value
2023-02-22T00:04:25.559Z,9.97
2023-02-22T00:06:28.812Z,8.50
2023-02-22T00:08:34.008Z,8.97
2023-02-22T00:10:38.409Z,9.03
2023-02-22T00:12:42.425Z,9.90
2023-02-22T00:14:45.201Z,8.33
2023-02-22T00:16:48.038Z,8.83
2023-02-22T00:18:51.879Z,8.33
2023-02-22T00:20:56.105Z,10.40
2023-02-22T00:23:01.409Z,11.13
2023-02-22T00:25:04.397Z,11.87
2023-02-22T00:27:07.400Z,10.17
2023-02-22T00:29:10.257Z,9.67
2023-02-22T00:31:13.299Z,9.60
2023-02-22T00:33:17.448Z,8.90
2023-02-22T00:35:23.473Z,12.00
2023-02-22T00:37:31.649Z,10.03
2023-02-22T00:39:34.816Z,8.80
2023-02-22T00:41:37.731Z,12.27
2023-02-22T00:43:41.339Z,13.07
2023-02-22T00:45:44.584Z,10.63
2023-02-22T00:47:47.546Z,9.33
2023-02-22T00:49:50.428Z,10.20
2023-02-22T00:51:55.803Z,11.47
2023-02-22T00:54:00.163Z,10.63
2023-02-22T00:56:03.079Z,11.27
2023-02-22T00:58:06.871Z,10.33
2023-02-22T01:00:15.723Z,11.20
2023-02-22T01:02:18.750Z,12.90
2023-02-22T01:04:21.626Z,9.83
2023-02-22T01:06:24.958Z,15.77
2023-02-22T01:08:31.012Z,12.93
2023-02-22T01:10:36.341Z,12.50
2023-02-22T01:12:42.044Z,10.27
2023-02-22T01:14:44.850Z,10.57
2023-02-22T01:16:48.000Z,11.00
2023-02-22T01:18:50.896Z,9.73
2023-02-22T01:20:53.864Z,14.90
2023-02-22T01:22:58.785Z,13.23
2023-02-22T01:25:01.732Z,10.57
2023-02-22T01:27:05.865Z,11.20
2023-02-22T01:29:09.921Z,11.47
2023-02-22T01:31:13.447Z,12.20
2023-02-22T01:33:16.970Z,12.13
2023-02-22T01:35:22.632Z,11.93
2023-02-22T01:37:25.451Z,13.13
2023-02-22T01:39:28.377Z,15.57
2023-02-22T01:41:31.184Z,14.33
2023-02-22T01:43:35.515Z,14.43
2023-02-22T01:45:49.334Z,14.57
2023-02-22T01:47:52.366Z,13.77
2023-02-22T01:49:55.630Z,13.63
2023-02-22T01:52:02.191Z,16.70
2023-02-22T01:54:09.507Z,13.30
2023-02-22T01:56:13.521Z,14.13
2023-02-22T01:58:19.574Z,17.67
2023-02-22T02:00:27.545Z,15.70
2023-02-22T02:02:30.537Z,17.93
2023-02-22T02:04:35.170Z,15.63
2023-02-22T02:06:39.617Z,19.20
2023-02-22T02:08:51.505Z,17.67
2023-02-22T02:10:56.355Z,20.77
2023-02-22T02:12:59.871Z,18.90
2023-02-22T02:15:23.994Z,20.60
2023-02-22T02:17:26.801Z,20.80
2023-02-22T02:19:42.427Z,20.00
2023-02-22T02:22:13.990Z,16.77
2023-02-22T02:24:50.184Z,18.70
2023-02-22T02:27:14.990Z,21.47
2023-02-22T02:29:45.354Z,19.43
2023-02-22T02:32:20.028Z,21.73
2023-02-22T02:34:32.660Z,18.97
2023-02-22T02:36:41.520Z,19.17
2023-02-22T02:38:48.736Z,21.13
2023-02-22T02:41:01.748Z,23.40
2023-02-22T02:43:13.257Z,23.47
2023-02-22T02:45:19.541Z,23.57
2023-02-22T02:47:29.769Z,22.27
2023-02-22T02:49:38.182Z,21.07
2023-02-22T02:51:45.172Z,20.63
2023-02-22T02:53:51.186Z,18.17
2023-02-22T02:55:54.478Z,21.00
2023-02-22T02:57:57.664Z,17.70
2023-02-22T03:00:00.459Z,23.03
2023-02-22T03:02:17.261Z,20.70
2023-02-22T03:04:37.207Z,24.30
2023-02-22T03:07:03.857Z,27.43
2023-02-22T03:09:16.753Z,23.63
2023-02-22T03:11:22.850Z,22.07
2023-02-22T03:13:32.460Z,22.90
2023-02-22T03:15:46.170Z,22.10
2023-02-22T03:17:54.807Z,22.33
2023-02-22T03:20:05.316Z,26.40
2023-02-22T03:22:13.919Z,27.20
2023-02-22T03:24:21.707Z,25.23
2023-02-22T03:26:30.436Z,32.47
2023-02-22T03:28:36.778Z,25.40
2023-02-22T03:30:43.255Z,26.57
2023-02-22T03:32:51.943Z,34.60
2023-02-22T03:35:00.355Z,28.37
2023-02-22T03:37:09.039Z,31.47
2023-02-22T03:39:16.897Z,34.77
2023-02-22T03:41:25.093Z,32.40
2023-02-22T03:43:32.224Z,29.03
2023-02-22T03:45:38.208Z,33.70
2023-02-22T03:47:46.604Z,27.53
2023-02-22T03:49:54.584Z,31.67
2023-02-22T03:51:59.581Z,35.87
2023-02-22T03:54:03.992Z,32.40
2023-02-22T03:56:10.456Z,28.40
2023-02-22T03:58:14.716Z,35.97
2023-02-22T04:00:22.954Z,31.60
2023-02-22T04:02:25.779Z,27.00
2023-02-22T04:04:28.836Z,31.70
2023-02-22T04:06:32.178Z,33.53
2023-02-22T04:08:36.729Z,39.00
2023-02-22T04:10:39.680Z,35.73
2023-02-22T04:12:42.453Z,41.53
2023-02-22T04:14:45.403Z,41.77
2023-02-22T04:16:48.278Z,38.10
2023-02-22T04:18:51.149Z,42.67
2023-02-22T04:20:54.282Z,40.17
2023-02-22T04:23:01.477Z,38.73
2023-02-22T04:25:06.302Z,39.03
2023-02-22T04:27:09.142Z,37.70
2023-02-22T04:29:11.966Z,36.47
2023-02-22T04:31:15.721Z,38.90
2023-02-22T04:33:18.974Z,40.33
2023-02-22T04:35:23.468Z,47.30
2023-02-22T04:37:26.459Z,45.70
2023-02-22T04:39:29.547Z,45.03
2023-02-22T04:41:34.518Z,39.57
2023-02-22T04:43:40.597Z,51.43
2023-02-22T04:45:43.808Z,46.13
2023-02-22T04:47:51.488Z,55.50
2023-02-22T04:49:54.493Z,47.20
2023-02-22T04:51:57.645Z,51.00
2023-02-22T04:54:00.678Z,62.03
2023-02-22T04:56:04.442Z,73.93
2023-02-22T04:58:09.602Z,72.60
2023-02-22T05:00:18.176Z,83.10
2023-02-22T05:02:21.158Z,67.07
2023-02-22T05:04:24.273Z,84.43
2023-02-22T05:06:27.196Z,79.00
2023-02-22T05:08:30.167Z,95.40
2023-02-22T05:10:33.769Z,97.17
2023-02-22T05:12:36.978Z,101.47
2023-02-22T05:14:41.568Z,85.03
2023-02-22T05:16:45.132Z,130.37
2023-02-22T05:18:48.221Z,124.90
2023-02-22T05:20:52.262Z,119.47
2023-02-22T05:22:55.500Z,110.77
2023-02-22T05:24:58.467Z,98.33
2023-02-22T05:27:01.404Z,112.90
2023-02-22T05:29:05.622Z,88.57
2023-02-22T05:31:10.156Z,77.07
2023-02-22T05:33:14.529Z,83.00
2023-02-22T05:35:18.213Z,83.77
2023-02-22T05:37:21.113Z,93.37
2023-02-22T05:39:24.126Z,85.03
2023-02-22T05:41:27.010Z,84.67
2023-02-22T05:43:29.852Z,70.03
2023-02-22T05:45:32.734Z,88.37
2023-02-22T05:47:37.558Z,67.10
2023-02-22T05:49:40.491Z,71.37
2023-02-22T05:51:43.673Z,76.30
2023-02-22T05:53:46.633Z,77.97
2023-02-22T05:55:49.481Z,82.87
2023-02-22T05:57:53.093Z,77.43
2023-02-22T05:59:55.916Z,102.07
2023-02-22T06:01:58.812Z,97.40
2023-02-22T06:04:03.103Z,103.53
2023-02-22T06:06:06.484Z,112.93
2023-02-22T06:08:10.158Z,110.20
2023-02-22T06:10:13.850Z,110.13
2023-02-22T06:12:16.954Z,123.10
2023-02-22T06:14:19.801Z,112.53
2023-02-22T06:16:23.643Z,115.83
2023-02-22T06:18:30.336Z,126.83
2023-02-22T06:20:35.505Z,127.93
2023-02-22T06:22:40.983Z,126.43
2023-02-22T06:24:43.971Z,109.10
2023-02-22T06:26:47.061Z,123.73
2023-02-22T06:28:50.240Z,170.07
2023-02-22T06:30:53.286Z,126.20
2023-02-22T06:32:56.426Z,157.00
2023-02-22T06:34:59.207Z,144.70
2023-02-22T06:37:03.292Z,186.70
2023-02-22T06:39:06.059Z,148.17
2023-02-22T06:41:10.705Z,158.37
2023-02-22T06:43:13.446Z,145.07
2023-02-22T06:45:18.309Z,145.83
2023-02-22T06:47:21.206Z,148.70
2023-02-22T06:49:23.932Z,144.23
2023-02-22T06:51:27.347Z,146.80
2023-02-22T06:53:31.438Z,117.47
2023-02-22T06:55:35.421Z,116.47
2023-02-22T06:57:38.345Z,109.30
2023-02-22T06:59:41.388Z,113.37
2023-02-22T07:01:45.297Z,120.23
2023-02-22T07:04:01.704Z,109.97
2023-02-22T07:06:05.576Z,120.43
2023-02-22T07:08:09.303Z,107.37
2023-02-22T07:10:21.016Z,119.97
2023-02-22T07:12:24.110Z,103.30
2023-02-22T07:14:27.214Z,131.67
2023-02-22T07:16:30.221Z,126.37
2023-02-22T07:18:33.037Z,115.63
2023-02-22T07:20:36.201Z,114.30
2023-02-22T07:22:39.487Z,97.67
2023-02-22T07:24:42.432Z,120.67
2023-02-22T07:26:46.634Z,107.80
2023-02-22T07:28:52.504Z,98.23
2023-02-22T07:30:55.289Z,89.13
2023-02-22T07:32:59.419Z,91.57
2023-02-22T07:35:02.845Z,85.17
2023-02-22T07:37:05.644Z,99.87
2023-02-22T07:39:08.658Z,81.43
2023-02-22T07:41:11.541Z,88.60
2023-02-22T07:43:18.651Z,91.13
2023-02-22T07:45:22.504Z,80.10
2023-02-22T07:47:25.432Z,98.23
2023-02-22T07:49:28.484Z,92.27
2023-02-22T07:51:33.962Z,86.80
2023-02-22T07:53:36.979Z,80.00
2023-02-22T07:55:39.948Z,85.47
2023-02-22T07:57:42.709Z,118.87
2023-02-22T07:59:49.151Z,87.70
2023-02-22T08:01:52.092Z,108.57
2023-02-22T08:03:56.071Z,88.27
2023-02-22T08:06:02.894Z,112.27
2023-02-22T08:08:06.846Z,104.33
2023-02-22T08:10:11.287Z,120.53
2023-02-22T08:12:14.088Z,102.33
2023-02-22T08:14:17.338Z,92.60
2023-02-22T08:16:21.669Z,95.03
2023-02-22T08:18:25.699Z,118.17
2023-02-22T08:20:29.065Z,85.57
2023-02-22T08:22:31.901Z,106.40
2023-02-22T08:24:34.714Z,80.83
2023-02-22T08:26:37.759Z,86.03
2023-02-22T08:28:40.754Z,108.67
2023-02-22T08:30:44.806Z,106.13
2023-02-22T08:32:49.912Z,90.40
2023-02-22T08:34:53.211Z,88.73
2023-02-22T08:36:56.846Z,85.93
2023-02-22T08:39:00.118Z,77.07
2023-02-22T08:41:02.983Z,97.33
2023-02-22T08:43:08.497Z,66.23
2023-02-22T08:45:14.368Z,75.37
2023-02-22T08:47:17.252Z,66.37
2023-02-22T08:49:21.719Z,72.17
2023-02-22T08:51:25.880Z,56.60
2023-02-22T08:53:30.181Z,61.67
2023-02-22T08:55:36.141Z,76.27
2023-02-22T08:57:39.284Z,72.90
2023-02-22T08:59:42.755Z,53.33
2023-02-22T09:01:45.703Z,69.60
2023-02-22T09:03:49.791Z,66.67
2023-02-22T09:05:54.215Z,40.57
2023-02-22T09:07:57.327Z,63.20
2023-02-22T09:10:00.681Z,51.93
2023-02-22T09:12:04.051Z,61.87
2023-02-22T09:14:07.070Z,47.40
2023-02-22T09:16:10.087Z,29.03
2023-02-22T09:18:15.288Z,34.27
2023-02-22T09:20:18.995Z,52.47
2023-02-22T09:22:23.136Z,38.87
2023-02-22T09:24:26.989Z,46.03
2023-02-22T09:26:29.778Z,31.47
2023-02-22T09:28:32.705Z,23.83
2023-02-22T09:30:37.312Z,30.03
2023-02-22T09:32:40.622Z,21.73
2023-02-22T09:34:45.795Z,46.03
2023-02-22T09:36:49.915Z,17.77
2023-02-22T09:38:54.282Z,19.47
2023-02-22T09:41:12.155Z,17.03
2023-02-22T09:43:28.089Z,14.80
2023-02-22T09:45:36.857Z,29.57
2023-02-22T09:47:42.619Z,14.17
2023-02-22T09:49:57.421Z,13.23
2023-02-22T09:52:04.795Z,12.60
2023-02-22T09:54:19.252Z,12.83
2023-02-22T09:56:22.616Z,13.17
2023-02-22T09:58:35.431Z,12.97
2023-02-22T10:00:40.881Z,13.80
2023-02-22T10:02:52.009Z,12.20
2023-02-22T10:05:01.409Z,13.63
2023-02-22T10:07:19.298Z,12.63
2023-02-22T10:09:26.428Z,12.40
2023-02-22T10:11:56.553Z,13.40
2023-02-22T10:14:07.007Z,12.23
2023-02-22T10:16:17.514Z,13.43
2023-02-22T10:18:38.965Z,13.73
2023-02-22T10:20:52.957Z,12.90
2023-02-22T10:23:09.321Z,13.80
2023-02-22T10:25:19.364Z,14.77
2023-02-22T10:27:25.237Z,14.57
2023-02-22T10:29:33.569Z,14.33
2023-02-22T10:31:41.872Z,12.50
2023-02-22T10:33:48.811Z,14.47
2023-02-22T10:35:53.622Z,13.63
2023-02-22T10:38:00.088Z,14.17
2023-02-22T10:40:12.878Z,14.00
2023-02-22T10:42:17.230Z,15.73
2023-02-22T10:44:20.158Z,17.03
2023-02-22T10:46:24.524Z,13.47
2023-02-22T10:48:30.380Z,14.43
2023-02-22T10:50:34.687Z,13.77
2023-02-22T10:52:38.634Z,14.30
2023-02-22T10:54:45.651Z,15.43
2023-02-22T10:56:50.958Z,14.37
2023-02-22T10:58:59.574Z,14.63
2023-02-22T11:01:18.667Z,15.43
2023-02-22T11:03:24.507Z,15.43
2023-02-22T11:05:31.042Z,14.88
2023-02-22T11:07:36.750Z,16.27
2023-02-22T11:09:51.583Z,15.55
2023-02-22T11:12:10.734Z,14.63
2023-02-22T11:14:26.515Z,14.48
2023-02-22T11:16:33.597Z,14.27
2023-02-22T11:18:36.918Z,15.57
2023-02-22T11:20:40.844Z,15.07
2023-02-22T11:22:44.708Z,13.95
2023-02-22T11:24:50.694Z,14.77
2023-02-22T11:26:57.241Z,14.65
2023-02-22T11:29:01.526Z,14.25
2023-02-22T11:31:17.385Z,14.43
2023-02-22T11:33:23.952Z,14.93
2023-02-22T11:35:41.591Z,14.50
2023-02-22T11:37:44.687Z,14.43
2023-02-22T11:39:47.902Z,14.65
2023-02-22T11:41:51.416Z,15.65
2023-02-22T11:43:55.344Z,14.80
2023-02-22T11:46:06.305Z,16.05
2023-02-22T11:48:21.119Z,14.73
2023-02-22T11:50:29.995Z,15.70
2023-02-22T11:52:38.518Z,15.90
2023-02-22T11:55:32.595Z,16.35
2023-02-22T11:57:47.675Z,17.67
2023-02-22T12:00:09.082Z,15.38
2023-02-22T12:02:56.419Z,15.90
2023-02-22T12:05:20.931Z,14.15
2023-02-22T12:07:44.940Z,15.40
2023-02-22T12:09:53.949Z,15.30
2023-02-22T12:12:08.593Z,16.48
2023-02-22T12:14:21.000Z,17.98
2023-02-22T12:16:32.166Z,18.55
2023-02-22T12:18:39.956Z,18.10
2023-02-22T12:20:49.421Z,18.08
2023-02-22T12:23:01.924Z,18.35
2023-02-22T12:25:17.178Z,17.15
2023-02-22T12:27:27.262Z,18.13
2023-02-22T12:29:37.540Z,19.77
2023-02-22T12:31:46.554Z,19.02
2023-02-22T12:33:59.878Z,19.20
2023-02-22T12:36:09.826Z,19.40
2023-02-22T12:38:22.696Z,20.30
2023-02-22T12:40:31.744Z,20.00
2023-02-22T12:42:45.580Z,19.80
2023-02-22T12:44:55.415Z,19.50
2023-02-22T12:47:01.464Z,20.90
2023-02-22T12:49:11.650Z,21.58
2023-02-22T12:51:26.891Z,22.13
2023-02-22T12:53:35.400Z,22.80
2023-02-22T12:55:45.594Z,22.35
2023-02-22T12:57:54.348Z,21.38
2023-02-22T13:00:02.306Z,20.55
2023-02-22T13:02:16.740Z,21.08
2023-02-22T13:04:21.527Z,22.27
2023-02-22T13:06:37.475Z,22.15
2023-02-22T13:08:52.818Z,21.02
2023-02-22T13:11:08.382Z,21.38
2023-02-22T13:13:17.947Z,23.67
2023-02-22T13:15:29.045Z,23.05
2023-02-22T13:17:40.828Z,21.48
2023-02-22T13:19:49.776Z,24.67
2023-02-22T13:22:00.095Z,21.83
2023-02-22T13:24:13.503Z,20.70
2023-02-22T13:26:25.810Z,22.50
2023-02-22T13:28:34.296Z,22.50
2023-02-22T13:30:40.869Z,21.63
2023-02-22T13:33:00.850Z,21.17
2023-02-22T13:35:35.071Z,21.30
2023-02-22T13:38:02.253Z,23.25
2023-02-22T13:40:30.924Z,22.13
2023-02-22T13:42:48.422Z,21.35
2023-02-22T13:45:20.558Z,21.60
2023-02-22T13:47:46.504Z,22.63
2023-02-22T13:50:32.634Z,20.42
2023-02-22T13:52:39.743Z,20.90
2023-02-22T13:54:47.029Z,21.80
2023-02-22T13:56:52.414Z,24.27
2023-02-22T13:58:58.062Z,21.50
2023-02-22T14:01:01.516Z,20.98
2023-02-22T14:03:09.448Z,17.92
2023-02-22T14:05:38.923Z,18.63
2023-02-22T14:07:53.328Z,16.30
2023-02-22T14:10:02.883Z,17.70
2023-02-22T14:12:06.703Z,16.45
2023-02-22T14:14:17.259Z,19.42
2023-02-22T14:16:24.324Z,17.83
2023-02-22T14:18:29.110Z,16.15
2023-02-22T14:20:36.133Z,17.85
2023-02-22T14:22:39.222Z,16.60
2023-02-22T14:24:45.352Z,21.02
2023-02-22T14:27:00.635Z,18.73
2023-02-22T14:29:17.137Z,20.75
2023-02-22T14:31:34.973Z,18.20
2023-02-22T14:33:54.508Z,20.70
2023-02-22T14:35:57.541Z,21.77
2023-02-22T14:38:02.862Z,20.80
2023-02-22T14:40:15.552Z,22.48
2023-02-22T14:42:24.916Z,20.52
2023-02-22T14:44:36.555Z,19.33
2023-02-22T14:46:43.470Z,19.23
2023-02-22T14:48:49.364Z,19.25
2023-02-22T14:50:55.162Z,19.83
2023-02-22T14:53:03.353Z,22.00
2023-02-22T14:55:22.374Z,20.13
2023-02-22T14:57:30.916Z,19.40
2023-02-22T14:59:36.082Z,20.75
2023-02-22T15:01:52.715Z,20.40
2023-02-22T15:04:07.844Z,22.98
2023-02-22T15:06:18.234Z,20.73
2023-02-22T15:08:28.112Z,21.70
2023-02-22T15:10:42.923Z,21.02
2023-02-22T15:13:08.664Z,21.98
2023-02-22T15:15:16.266Z,19.77
2023-02-22T15:17:22.562Z,21.60
2023-02-22T15:19:32.381Z,22.27
2023-02-22T15:21:46.458Z,21.95
2023-02-22T15:23:51.265Z,21.77
2023-02-22T15:25:56.148Z,21.70
2023-02-22T15:28:05.149Z,22.77
2023-02-22T15:30:17.529Z,22.08
2023-02-22T15:32:29.501Z,19.67
2023-02-22T15:34:34.254Z,21.27
2023-02-22T15:36:37.270Z,19.67
2023-02-22T15:38:43.150Z,20.75
2023-02-22T15:40:50.553Z,18.50
2023-02-22T15:42:58.209Z,19.27
2023-02-22T15:45:04.819Z,18.17
2023-02-22T15:47:08.711Z,21.35
2023-02-22T15:49:25.708Z,21.13
2023-02-22T15:51:32.845Z,18.00
2023-02-22T15:53:41.867Z,18.42
2023-02-22T15:55:49.249Z,19.52
2023-02-22T15:57:53.056Z,18.27
2023-02-22T15:59:58.288Z,19.90
2023-02-22T16:02:02.951Z,19.58
2023-02-22T16:04:06.747Z,17.85
2023-02-22T16:06:11.754Z,20.55
2023-02-22T16:08:18.897Z,18.90
2023-02-22T16:10:26.436Z,20.63
2023-02-22T16:12:29.731Z,22.67
2023-02-22T16:14:42.714Z,22.52
2023-02-22T16:16:46.078Z,18.50
2023-02-22T16:18:50.745Z,22.70
2023-02-22T16:21:01.601Z,22.85
2023-02-22T16:23:46.300Z,20.50
2023-02-22T16:26:03.272Z,23.98
2023-02-22T16:28:27.405Z,24.40
2023-02-22T16:30:33.538Z,21.70
2023-02-22T16:32:38.911Z,22.47
2023-02-22T16:34:43.483Z,21.98
2023-02-22T16:36:49.031Z,22.43
2023-02-22T16:38:52.207Z,22.37
2023-02-22T16:40:58.739Z,21.58
2023-02-22T16:43:03.791Z,24.57
2023-02-22T16:45:09.771Z,22.67
2023-02-22T16:47:13.728Z,22.07
2023-02-22T16:49:16.915Z,26.80
2023-02-22T16:51:25.311Z,20.10
2023-02-22T16:53:31.816Z,23.83
2023-02-22T16:55:36.509Z,24.33
2023-02-22T16:57:40.983Z,23.07
2023-02-22T16:59:44.366Z,23.67
2023-02-22T17:01:47.654Z,25.80
2023-02-22T17:03:53.823Z,24.83
2023-02-22T17:05:56.847Z,22.27
2023-02-22T17:08:01.176Z,25.13
2023-02-22T17:10:04.105Z,23.73
2023-02-22T17:12:07.673Z,23.50
2023-02-22T17:14:17.267Z,28.43
2023-02-22T17:16:20.903Z,27.93
2023-02-22T17:18:28.220Z,23.83
2023-02-22T17:20:31.562Z,24.27
2023-02-22T17:22:34.609Z,26.03
2023-02-22T17:24:39.197Z,23.90
2023-02-22T17:26:42.310Z,26.07
2023-02-22T17:28:46.066Z,25.30
2023-02-22T17:30:49.257Z,23.10
2023-02-22T17:32:53.525Z,20.70
2023-02-22T17:34:56.552Z,20.93
2023-02-22T17:36:59.540Z,21.30
2023-02-22T17:39:03.382Z,23.07
2023-02-22T17:41:08.430Z,20.83
2023-02-22T17:43:11.318Z,19.97
2023-02-22T17:45:15.024Z,18.97
2023-02-22T17:47:17.967Z,20.00
2023-02-22T17:49:21.158Z,20.37
2023-02-22T17:51:25.871Z,21.80
2023-02-22T17:53:28.936Z,22.50
2023-02-22T17:55:33.860Z,24.07
2023-02-22T17:57:39.764Z,21.57
2023-02-22T17:59:42.720Z,19.47
2023-02-22T18:01:46.008Z,22.20
2023-02-22T18:03:49.279Z,26.13
2023-02-22T18:05:56.206Z,21.90
2023-02-22T18:07:59.596Z,24.83
2023-02-22T18:10:05.209Z,25.20
2023-02-22T18:12:08.272Z,22.33
2023-02-22T18:14:12.817Z,25.63
2023-02-22T18:16:16.166Z,23.70
2023-02-22T18:18:19.890Z,23.83
2023-02-22T18:20:30.930Z,22.20
2023-02-22T18:22:34.125Z,22.87
2023-02-22T18:24:37.913Z,23.50
2023-02-22T18:26:41.308Z,24.13
2023-02-22T18:28:45.025Z,24.43
2023-02-22T18:30:50.197Z,22.67
2023-02-22T18:32:53.287Z,27.70
2023-02-22T18:34:56.238Z,26.10
2023-02-22T18:36:59.285Z,28.73
2023-02-22T18:39:03.300Z,21.57
2023-02-22T18:41:08.988Z,23.43
2023-02-22T18:43:11.876Z,23.87
2023-02-22T18:45:15.131Z,25.77
2023-02-22T18:47:19.775Z,24.13
2023-02-22T18:49:22.802Z,23.40
2023-02-22T18:51:26.819Z,22.93
2023-02-22T18:53:29.891Z,23.17
2023-02-22T18:55:32.656Z,27.73
2023-02-22T18:57:35.952Z,22.47
2023-02-22T18:59:39.089Z,23.63
2023-02-22T19:01:48.638Z,24.47
2023-02-22T19:03:55.413Z,23.93
2023-02-22T19:06:02.800Z,24.47
2023-02-22T19:08:11.149Z,26.40
2023-02-22T19:10:14.026Z,28.30
2023-02-22T19:12:17.014Z,26.67
2023-02-22T19:14:19.948Z,27.37
2023-02-22T19:16:24.200Z,26.47
2023-02-22T19:18:27.152Z,23.87
2023-02-22T19:20:33.502Z,30.33
2023-02-22T19:22:39.477Z,28.60
2023-02-22T19:24:42.536Z,29.00
2023-02-22T19:26:50.693Z,32.40
2023-02-22T19:28:55.129Z,31.60
2023-02-22T19:30:58.712Z,32.93
2023-02-22T19:33:04.567Z,32.93
2023-02-22T19:35:08.089Z,32.47
2023-02-22T19:37:15.277Z,34.33
2023-02-22T19:39:20.743Z,31.30
2023-02-22T19:41:24.522Z,30.47
2023-02-22T19:43:28.458Z,28.80
2023-02-22T19:45:31.318Z,30.73
2023-02-22T19:47:34.405Z,29.73
2023-02-22T19:49:40.958Z,29.47
2023-02-22T19:51:44.033Z,29.50
2023-02-22T19:53:49.292Z,32.57
2023-02-22T19:55:52.884Z,30.47
2023-02-22T19:57:56.366Z,30.80
2023-02-22T20:00:10.968Z,27.33
2023-02-22T20:02:15.261Z,27.17
2023-02-22T20:04:22.866Z,30.43
2023-02-22T20:06:58.937Z,29.43
2023-02-22T20:09:04.905Z,33.23
2023-02-22T20:11:14.682Z,31.13
2023-02-22T20:13:18.834Z,28.20
2023-02-22T20:15:26.968Z,26.77
2023-02-22T20:17:32.365Z,26.97
2023-02-22T20:19:37.140Z,27.50
2023-02-22T20:21:40.155Z,26.20
2023-02-22T20:23:44.338Z,29.57
2023-02-22T20:25:54.248Z,30.23
2023-02-22T20:27:57.571Z,30.90
2023-02-22T20:30:00.523Z,36.10
2023-02-22T20:32:06.073Z,28.27
2023-02-22T20:34:10.429Z,30.30
2023-02-22T20:36:15.139Z,27.77
2023-02-22T20:38:19.230Z,33.73
2023-02-22T20:40:22.193Z,29.37
2023-02-22T20:42:26.701Z,31.00
2023-02-22T20:44:32.466Z,29.77
2023-02-22T20:46:36.915Z,28.00
2023-02-22T20:48:39.855Z,29.17
2023-02-22T20:50:42.848Z,33.63
2023-02-22T20:52:46.435Z,27.07
2023-02-22T20:54:49.421Z,30.10
2023-02-22T20:56:53.135Z,36.30
2023-02-22T20:58:59.775Z,38.50
2023-02-22T21:01:06.034Z,37.07
2023-02-22T21:03:09.446Z,37.43
2023-02-22T21:05:12.540Z,36.00
2023-02-22T21:07:15.527Z,38.30
2023-02-22T21:09:24.447Z,33.73
2023-02-22T21:11:30.313Z,31.63
2023-02-22T21:13:33.153Z,35.10
2023-02-22T21:15:43.540Z,33.37
2023-02-22T21:17:47.495Z,29.17
2023-02-22T21:19:50.594Z,31.57
2023-02-22T21:21:55.210Z,35.47
2023-02-22T21:24:01.624Z,29.63
2023-02-22T21:26:04.970Z,29.47
2023-02-22T21:28:07.950Z,28.27
2023-02-22T21:30:12.003Z,29.37
2023-02-22T21:32:16.627Z,32.37
2023-02-22T21:34:22.709Z,35.67
2023-02-22T21:36:26.391Z,33.00
2023-02-22T21:38:29.932Z,34.17
2023-02-22T21:40:32.923Z,35.77
2023-02-22T21:42:37.068Z,32.77
2023-02-22T21:44:40.120Z,37.77
2023-02-22T21:46:43.468Z,37.30
2023-02-22T21:48:49.262Z,36.27
2023-02-22T21:50:52.133Z,37.50
2023-02-22T21:52:55.019Z,35.63
2023-02-22T21:54:58.057Z,34.20
2023-02-22T21:57:01.774Z,30.67
2023-02-22T21:59:06.646Z,33.70
2023-02-22T22:01:17.125Z,37.80
2023-02-22T22:03:21.478Z,36.87
2023-02-22T22:05:33.367Z,29.57
2023-02-22T22:07:36.204Z,31.07
2023-02-22T22:09:41.247Z,31.47
2023-02-22T22:11:44.129Z,30.97
2023-02-22T22:13:48.469Z,28.53
2023-02-22T22:15:51.523Z,32.63
2023-02-22T22:17:57.111Z,29.40
2023-02-22T22:19:59.931Z,30.20
2023-02-22T22:22:05.574Z,27.67
2023-02-22T22:24:10.556Z,32.53
2023-02-22T22:26:14.937Z,34.87
2023-02-22T22:28:18.016Z,28.77
2023-02-22T22:30:20.931Z,28.30
2023-02-22T22:32:24.803Z,30.03
2023-02-22T22:34:29.499Z,34.80
2023-02-22T22:36:34.308Z,35.77
2023-02-22T22:38:39.562Z,33.53
2023-02-22T22:40:42.400Z,31.57
2023-02-22T22:42:46.249Z,31.90
2023-02-22T22:44:50.276Z,30.87
2023-02-22T22:46:54.678Z,26.33
2023-02-22T22:48:58.230Z,29.27
2023-02-22T22:51:02.599Z,26.50
2023-02-22T22:53:05.760Z,23.93
2023-02-22T22:55:11.958Z,27.73
2023-02-22T22:57:15.437Z,25.33
2023-02-22T22:59:18.368Z,22.70
2023-02-22T23:01:26.990Z,25.40
2023-02-22T23:03:31.014Z,29.60
2023-02-22T23:05:38.475Z,24.17
2023-02-22T23:07:42.055Z,25.63
2023-02-22T23:09:45.076Z,22.90
2023-02-22T23:11:53.165Z,23.73
2023-02-22T23:13:56.880Z,22.03
2023-02-22T23:16:01.817Z,22.87
2023-02-22T23:18:07.387Z,24.60
2023-02-22T23:20:12.191Z,23.77
2023-02-22T23:22:15.333Z,23.77
2023-02-22T23:24:20.946Z,26.83
2023-02-22T23:26:26.539Z,24.87
2023-02-22T23:28:31.286Z,22.50
2023-02-22T23:30:34.235Z,25.00
2023-02-22T23:32:37.214Z,25.13
2023-02-22T23:34:41.478Z,23.37
2023-02-22T23:36:45.139Z,28.90
2023-02-22T23:38:48.130Z,23.33
2023-02-22T23:40:53.979Z,25.13
2023-02-22T23:42:57.283Z,26.93
2023-02-22T23:45:01.667Z,21.83
2023-02-22T23:47:04.819Z,23.57
2023-02-22T23:49:09.945Z,21.80
2023-02-22T23:51:13.483Z,28.20
2023-02-22T23:53:16.401Z,22.17
2023-02-22T23:55:20.989Z,24.33
2023-02-22T23:57:25.825Z,29.43
2023-02-22T23:59:29.073Z,29.77
